createdAt,value
2018-05-13T00:01:12.804Z,7.10
2018-05-13T00:06:15.296Z,7.70
2018-05-13T00:11:17.791Z,7.03
2018-05-13T00:16:20.292Z,8.70
2018-05-13T00:21:22.787Z,7.63
2018-05-13T00:26:25.280Z,7.80
2018-05-13T00:31:27.768Z,7.40
2018-05-13T00:36:30.252Z,8.30
2018-05-13T00:41:32.743Z,8.67
2018-05-13T00:46:35.231Z,7.87
2018-05-13T00:51:37.717Z,7.90
2018-05-13T00:56:40.200Z,9.30
2018-05-13T01:01:42.700Z,7.77
2018-05-13T01:06:45.203Z,9.47
2018-05-13T01:11:47.696Z,9.03
2018-05-13T01:16:50.179Z,7.97
2018-05-13T01:21:52.678Z,9.67
2018-05-13T01:26:55.164Z,10.33
2018-05-13T01:31:57.642Z,10.57
2018-05-13T01:37:00.152Z,10.33
2018-05-13T01:42:02.654Z,10.37
2018-05-13T01:47:05.140Z,10.67
2018-05-13T01:52:07.647Z,12.57
2018-05-13T01:57:10.140Z,10.30
2018-05-13T02:02:12.636Z,11.30
2018-05-13T02:07:15.123Z,11.20
2018-05-13T02:12:18.400Z,11.90
2018-05-13T02:17:20.909Z,12.07
2018-05-13T02:22:23.399Z,12.23
2018-05-13T02:27:25.888Z,13.30
2018-05-13T02:32:28.384Z,12.10
2018-05-13T02:37:30.870Z,13.13
2018-05-13T02:42:33.400Z,13.00
2018-05-13T02:47:35.887Z,12.77
2018-05-13T02:52:38.383Z,13.00
2018-05-13T02:57:40.871Z,12.90
2018-05-13T03:02:43.365Z,12.57
2018-05-13T03:07:45.868Z,14.10
2018-05-13T03:12:48.367Z,13.10
2018-05-13T03:17:50.857Z,13.73
2018-05-13T03:22:53.335Z,14.10
2018-05-13T03:27:55.835Z,14.57
2018-05-13T03:32:58.319Z,14.30
2018-05-13T03:38:00.820Z,13.80
2018-05-13T03:43:03.321Z,13.23
2018-05-13T03:48:05.819Z,18.73
2018-05-13T03:53:08.319Z,13.90
2018-05-13T03:58:10.838Z,14.17
2018-05-13T04:03:14.108Z,13.33
2018-05-13T04:14:08.729Z,14.77
2018-05-13T04:19:11.245Z,14.60
2018-05-13T04:24:13.759Z,14.67
2018-05-13T04:29:17.031Z,15.93
2018-05-13T04:34:19.549Z,15.33
2018-05-13T04:39:22.075Z,15.73
2018-05-13T04:44:24.610Z,15.30
2018-05-13T04:49:27.139Z,15.77
2018-05-13T04:54:31.435Z,15.87
2018-05-13T04:59:33.933Z,16.23
2018-05-13T05:04:37.437Z,15.03
2018-05-13T05:09:39.972Z,16.47
2018-05-13T05:14:42.481Z,16.00
2018-05-13T05:19:45.002Z,16.90
2018-05-13T05:24:47.518Z,18.13
2018-05-13T05:29:51.029Z,16.37
2018-05-13T05:34:53.552Z,16.50
2018-05-13T05:39:56.066Z,16.63
2018-05-13T05:44:59.396Z,17.00
2018-05-13T05:50:01.933Z,19.60
2018-05-13T05:55:04.448Z,16.37
2018-05-13T06:00:06.992Z,16.60
2018-05-13T06:05:09.520Z,14.33
2018-05-13T06:10:12.044Z,15.63
2018-05-13T06:15:15.331Z,17.10
2018-05-13T06:20:17.860Z,14.40
2018-05-13T06:25:21.235Z,15.20
2018-05-13T06:30:24.460Z,15.73
2018-05-13T06:35:27.021Z,14.90
2018-05-13T06:40:29.544Z,14.70
2018-05-13T06:45:32.068Z,14.23
2018-05-13T06:50:35.347Z,17.10
2018-05-13T06:55:38.067Z,17.23
2018-05-13T07:00:41.331Z,15.43
2018-05-13T07:05:43.847Z,13.90
2018-05-13T07:10:46.361Z,19.37
2018-05-13T07:15:50.040Z,16.40
2018-05-13T07:20:52.564Z,15.20
2018-05-13T07:25:55.086Z,15.43
2018-05-13T07:30:57.588Z,17.33
2018-05-13T07:36:00.092Z,17.03
2018-05-13T07:41:02.630Z,15.30
2018-05-13T07:46:05.143Z,18.30
2018-05-13T07:51:08.420Z,17.20
2018-05-13T07:56:10.935Z,18.73
2018-05-13T08:01:13.448Z,19.57
2018-05-13T08:06:16.950Z,19.20
2018-05-13T08:11:20.115Z,18.67
2018-05-13T08:16:22.628Z,19.10
2018-05-13T08:21:25.129Z,20.70
2018-05-13T08:26:27.636Z,14.77
2018-05-13T08:31:30.922Z,18.97
2018-05-13T08:36:33.448Z,20.90
2018-05-13T08:41:36.723Z,21.50
2018-05-13T08:46:39.259Z,15.13
2018-05-13T08:51:42.535Z,22.20
2018-05-13T08:56:45.052Z,20.00
2018-05-13T09:01:48.327Z,14.90
2018-05-13T09:06:50.839Z,20.93
2018-05-13T09:11:53.353Z,23.43
2018-05-13T09:16:55.892Z,19.03
2018-05-13T09:21:58.408Z,26.63
2018-05-13T09:27:00.916Z,17.57
2018-05-13T09:32:03.436Z,15.87
2018-05-13T09:37:06.711Z,12.17
2018-05-13T09:42:09.236Z,19.90
2018-05-13T09:47:12.575Z,15.13
2018-05-13T09:52:15.028Z,16.27
2018-05-13T09:57:18.312Z,14.53
2018-05-13T10:02:20.868Z,12.27
2018-05-13T10:07:23.360Z,20.90
2018-05-13T10:12:25.867Z,19.60
2018-05-13T10:17:28.367Z,18.40
2018-05-13T10:22:30.927Z,13.13
2018-05-13T10:27:33.444Z,15.20
2018-05-13T10:32:35.947Z,15.87
2018-05-13T10:37:38.487Z,23.73
2018-05-13T10:42:41.780Z,22.33
2018-05-13T10:47:44.287Z,17.53
2018-05-13T10:52:46.829Z,16.80
2018-05-13T10:57:49.390Z,16.03
2018-05-13T11:02:51.960Z,23.60
2018-05-13T11:07:54.472Z,19.67
2018-05-13T11:12:57.756Z,21.63
2018-05-13T11:18:00.276Z,17.13
2018-05-13T11:23:03.559Z,22.53
2018-05-13T11:28:06.082Z,15.93
2018-05-13T11:33:09.356Z,18.13
2018-05-13T11:38:11.869Z,19.53
2018-05-13T11:43:14.390Z,18.37
2018-05-13T11:48:16.909Z,19.60
2018-05-13T11:53:19.420Z,25.40
2018-05-13T11:58:21.937Z,19.53
2018-05-13T12:03:24.452Z,15.50
2018-05-13T12:08:27.728Z,16.17
2018-05-13T12:13:30.244Z,45.80
2018-05-13T12:18:33.516Z,19.20
2018-05-13T12:23:36.036Z,24.07
2018-05-13T12:28:38.548Z,22.90
2018-05-13T12:33:41.819Z,30.20
2018-05-13T12:38:44.315Z,41.23
2018-05-13T12:43:46.831Z,36.10
2018-05-13T12:48:49.363Z,47.23
2018-05-13T12:53:51.875Z,61.23
2018-05-13T12:58:54.473Z,78.00
2018-05-13T13:03:56.984Z,81.60
2018-05-13T13:08:59.505Z,87.83
2018-05-13T13:14:02.012Z,93.27
2018-05-13T13:19:05.295Z,91.03
2018-05-13T13:24:07.803Z,88.83
2018-05-13T13:29:10.316Z,85.50
2018-05-13T13:34:12.849Z,84.90
2018-05-13T13:39:15.360Z,84.37
2018-05-13T13:44:17.888Z,214.40
2018-05-13T13:49:21.188Z,152.03
2018-05-13T13:54:23.722Z,120.67
2018-05-13T13:59:26.295Z,84.30
2018-05-13T14:04:28.784Z,85.17
2018-05-13T14:09:32.056Z,83.83
2018-05-13T14:14:35.406Z,87.10
2018-05-13T14:19:38.666Z,75.87
2018-05-13T14:24:41.216Z,80.50
2018-05-13T14:29:44.491Z,78.83
2018-05-13T14:34:47.240Z,73.20
2018-05-13T14:39:49.758Z,72.00
2018-05-13T14:44:52.276Z,73.27
2018-05-13T14:49:54.790Z,75.00
2018-05-13T14:54:58.060Z,69.43
2018-05-13T15:00:00.619Z,60.93
2018-05-13T15:05:03.239Z,65.10
2018-05-13T15:10:05.776Z,54.97
2018-05-13T15:15:08.308Z,58.80
2018-05-13T15:20:11.044Z,56.03
2018-05-13T15:25:13.574Z,49.77
2018-05-13T15:30:22.228Z,43.77
2018-05-13T15:35:25.512Z,43.33
2018-05-13T15:40:28.020Z,45.50
2018-05-13T15:45:31.307Z,43.23
2018-05-13T15:50:33.851Z,39.17
2018-05-13T15:55:36.377Z,41.13
2018-05-13T16:00:38.901Z,37.30
2018-05-13T16:05:41.434Z,36.03
2018-05-13T16:10:43.956Z,37.90
2018-05-13T16:15:46.480Z,33.67
2018-05-13T16:20:49.263Z,36.20
2018-05-13T16:25:52.603Z,43.50
2018-05-13T16:30:55.898Z,31.67
2018-05-13T16:35:58.426Z,31.43
2018-05-13T16:41:01.530Z,33.20
2018-05-13T16:46:04.816Z,29.30
2018-05-13T16:51:07.360Z,33.00
2018-05-13T16:56:09.884Z,33.20
2018-05-13T17:01:12.383Z,35.57
2018-05-13T17:06:14.903Z,37.80
2018-05-13T17:11:18.196Z,29.17
2018-05-13T17:16:20.716Z,43.63
2018-05-13T17:21:23.237Z,36.10
2018-05-13T17:26:25.734Z,29.20
2018-05-13T17:31:28.252Z,29.40
2018-05-13T17:36:30.759Z,34.40
2018-05-13T17:41:33.276Z,28.80
2018-05-13T17:46:36.560Z,31.17
2018-05-13T17:51:39.067Z,38.80
2018-05-13T17:56:42.339Z,33.60
2018-05-13T18:01:44.860Z,30.50
2018-05-13T18:06:47.415Z,27.50
2018-05-13T18:11:50.668Z,35.00
2018-05-13T18:16:53.224Z,38.00
2018-05-13T18:21:55.744Z,35.00
2018-05-13T18:26:58.252Z,38.40
2018-05-13T18:32:00.772Z,31.57
2018-05-13T18:37:03.287Z,40.83
2018-05-13T18:42:05.785Z,35.43
2018-05-13T18:47:08.323Z,40.10
2018-05-13T18:52:10.840Z,30.70
2018-05-13T18:57:13.352Z,29.97
2018-05-13T19:02:15.871Z,29.90
2018-05-13T19:07:18.383Z,30.50
2018-05-13T19:12:20.927Z,31.40
2018-05-13T19:17:23.387Z,25.53
2018-05-13T19:22:26.672Z,25.33
2018-05-13T19:27:29.179Z,24.57
2018-05-13T19:32:31.704Z,30.03
2018-05-13T19:37:34.983Z,25.17
2018-05-13T19:42:37.502Z,24.30
2018-05-13T19:47:40.784Z,25.40
2018-05-13T19:52:43.331Z,24.70
2018-05-13T19:57:45.853Z,21.90
2018-05-13T20:02:48.448Z,22.33
2018-05-13T20:07:50.884Z,23.30
2018-05-13T20:12:54.161Z,24.13
2018-05-13T20:17:56.684Z,31.30
2018-05-13T20:23:11.911Z,22.87
2018-05-13T20:28:14.411Z,24.10
2018-05-13T20:33:16.929Z,25.80
2018-05-13T20:38:19.428Z,26.43
2018-05-13T20:43:21.930Z,21.23
2018-05-13T20:48:24.465Z,22.43
2018-05-13T20:53:26.984Z,24.90
2018-05-13T20:58:29.499Z,26.03
2018-05-13T21:03:32.021Z,23.23
2018-05-13T21:08:35.293Z,26.90
2018-05-13T21:13:37.794Z,25.67
2018-05-13T21:18:40.302Z,26.37
2018-05-13T21:23:42.835Z,23.50
2018-05-13T21:28:45.348Z,24.50
2018-05-13T21:33:47.855Z,22.67
2018-05-13T21:38:50.371Z,23.40
2018-05-13T21:43:52.900Z,23.30
2018-05-13T21:48:55.417Z,25.73
2018-05-13T21:53:57.930Z,28.07
2018-05-13T21:59:00.460Z,28.30
2018-05-13T22:04:03.719Z,26.00
2018-05-13T22:09:06.220Z,28.83
2018-05-13T22:14:08.736Z,27.80
2018-05-13T22:19:11.248Z,33.97
2018-05-13T22:24:14.540Z,29.33
2018-05-13T22:29:17.051Z,35.10
2018-05-13T22:34:19.556Z,29.67
2018-05-13T22:39:22.815Z,34.47
2018-05-13T22:44:25.311Z,34.60
2018-05-13T22:49:27.811Z,31.27
2018-05-13T22:54:30.311Z,32.13
2018-05-13T22:59:32.824Z,32.37
2018-05-13T23:04:35.328Z,31.43
2018-05-13T23:09:38.608Z,33.00
2018-05-13T23:14:41.107Z,33.63
2018-05-13T23:19:43.616Z,34.27
2018-05-13T23:24:46.900Z,36.50
2018-05-13T23:29:49.408Z,35.10
2018-05-13T23:34:51.919Z,33.20
2018-05-13T23:39:55.196Z,34.27
2018-05-13T23:44:57.700Z,33.27
2018-05-13T23:50:00.213Z,33.20
2018-05-13T23:55:03.483Z,32.93
